Eugene, OR (97404)

11:27 PM PDT on October 21, 2014 (GMT -0700)
Santa Clara | Change Station
CLOSE
Current Station
Personal Weather Station
Location: Eugene, OR
Elevation: 406 ft
Nearby Weather Stations
Active Advisory: Special Statement

Elev 406 ft 44.11 °N, 123.15 °W | Updated 2 seconds ago

Overcast
Overcast
54.9 °F
Feels Like 54.9 °F
N
4.0
Wind Variable Wind from SE
Gusts 9.0 mph

Today
High -- | Low -- °F
--% Chance of Precip.
Yesterday
High -- | Low -- °F
Precip. -- in
7:34 AM 6:18 PM
Waning Crescent, 3% visible
Pressure 29.90 in
Visibility 10.0 miles
Clouds Mostly Cloudy 5000 ft
Overcast 6000 ft
Dew Point 50 °F
Humidity 84%
Rainfall 0.05 in
Snow Depth Not available.
UV 0 out of 12
Pollen .10 out of 12
PM2.5 Good
Flu Activity Sporadic
METAR KEUG 220554Z 16008KT 10SM BKN050 OVC060 13/10 A2989 RMK AO2 RAE48 SLP123 P0001 60002 T01280100 10167 20128 56012

More Conditions Fewer Conditions

Pressure 29.90 in
Visibility 10.0 miles
Clouds Mostly Cloudy 5000 ft
Overcast 6000 ft
Dew Point 50 °F
Humidity 84%
Rainfall 0.05 in
Snow Depth Not available.
UV 0 out of 12
Pollen .10 out of 12
PM2.5 Good
Flu Activity Sporadic
METAR KEUG 220554Z 16008KT 10SM BKN050 OVC060 13/10 A2989 RMK AO2 RAE48 SLP123 P0001 60002 T01280100 10167 20128 56012

More Conditions Fewer Conditions

10-Day Weather Forecast

Almanac

Astronomy

Oct. 21, 2014 Rise Set
Actual Time 7:34 AM PDT 6:18 PM PDT
Civil Twilight 7:05 AM PDT 6:47 PM PDT
Nautical Twilight 6:31 AM PDT 7:21 PM PDT
Astronomical Twilight 5:58 AM PDT 7:55 PM PDT
Moon 5:20 AM PDT (10/21) 5:19 PM PDT (10/21)
Length of Visible Light 11h 42m
Length of Day
10h 43m
Tomorrow will be 2m 52s shorter.
Waning Crescent, 3% of the Moon is Illuminated
Oct 22
Waning Crescent
Oct 23
New
Oct 30
First Quarter
Nov 6
Full
Nov 14
Last Quarter

Community

WunderPhotos

Upload Photos

1,763,885 photos uploaded!

Nearby

Air Quality

  Air Quality AQ Index Pollutant
Yesterday Good
PM2.5
Current Good
PM2.5
Tuesday Good
PM2.5
Wednesday Good
PM2.5

Snow Depth

Station Depth Elevation
Holland Meadows 0 in 4900 ft
Jump Off Joe 0 in 3500 ft
Roaring River 0 in 4900 ft
Irish Taylor 0 in 5500 ft
Mckenzie 0 in 4800 ft

Earthquake Activity

City Distance Mag. Time & Date
No recent earthquake activity has been reported nearby.
Minimum magnitude displayed is 2.5.

Coastal Water Temperatures

Place Temperature
No Stations Reporting

Nearby Weather Stations